Terminal Aerodrome Forecast
Issued by NWS

Current Version | Previous Version | Text Only | Print | Product List | Glossary Off
Versions: 1 2 3 4 5 6 7 8 9 10 11 12 13 14 15 16 17 18 19 20 21 22

242
FTUS41 KRLX 212339
TAFCKB
TAF
KCKB 212339Z 2200/2224 28006KT P6SM SCT045
     FM220900 VRB03KT 3SM BR SCT030
     FM221200 VRB03KT 5SM BR BKN025
     FM221400 27004KT P6SM SCT025
     FM221600 28005KT P6SM SCT040=

USA.gov is the U.S. government's official web portal to all federal, state and local government web resources and services.